Time;durP1;ratioP1;P1;durP2;ratioP2;P2;SDS_P1;SDS_P2;PMS_P1;PMS_P2;Temp;Humidity;BMP_temperature;BMP_pressure;BME280_temperature;BME280_humidity;BME280_pressure;Samples;Min_cycle;Max_cycle;Signal;HPM_P1;HPM_P2
2022/12/31 00:00:37;;;;;;;;;0.00;0.00;;;;;15.39;88.21;100236.53;5017010;28;45587;-57
2022/12/31 00:03:03;;;;;;;;;1.00;1.00;;;;;15.28;88.06;100219.50;5016624;28;45238;-58
2022/12/31 00:05:30;;;;;;;;;0.00;0.00;;;;;15.32;88.54;100234.34;5016507;28;45453;-58
2022/12/31 00:07:56;;;;;;;;;0.00;0.00;;;;;15.29;88.72;100248.00;4998301;28;45413;-59
2022/12/31 00:10:22;;;;;;;;;0.00;0.00;;;;;15.24;89.01;100234.13;5016852;28;45565;-59
2022/12/31 00:12:47;;;;;;;;;0.00;0.00;;;;;15.25;88.82;100241.19;4998584;28;45519;-58
2022/12/31 00:15:13;;;;;;;;;2.00;1.00;;;;;15.28;88.85;100251.66;5016586;28;45253;-59
2022/12/31 00:17:38;;;;;;;;;1.00;1.00;;;;;15.22;88.64;100213.78;5016500;28;45171;-59
2022/12/31 00:20:04;;;;;;;;;3.00;0.00;;;;;15.29;88.47;100237.28;5016722;28;45307;-60
2022/12/31 00:22:30;;;;;;;;;1.00;1.00;;;;;15.28;88.42;100238.25;5016431;28;46075;-58
2022/12/31 00:24:55;;;;;;;;;0.00;0.00;;;;;15.26;88.09;100240.22;5016352;28;45197;-58
2022/12/31 00:27:21;;;;;;;;;0.67;0.00;;;;;15.25;87.43;100230.47;5016267;28;45354;-57
2022/12/31 00:29:46;;;;;;;;;0.67;0.67;;;;;15.28;87.44;100245.44;5016875;28;45551;-58
2022/12/31 00:32:12;;;;;;;;;3.00;0.33;;;;;15.33;87.00;100260.16;5016043;28;46144;-57
2022/12/31 00:34:37;;;;;;;;;1.33;0.67;;;;;15.35;87.01;100265.41;5015737;28;45217;-56
2022/12/31 00:37:02;;;;;;;;;0.00;0.00;;;;;15.37;86.79;100249.22;5016794;28;45840;-57
2022/12/31 00:39:28;;;;;;;;;2.67;1.00;;;;;15.40;86.23;100254.31;5016558;28;45941;-58
2022/12/31 00:41:53;;;;;;;;;2.67;1.00;;;;;15.40;85.94;100265.03;5016059;28;54298;-59
2022/12/31 00:44:18;;;;;;;;;1.00;1.00;;;;;15.43;85.80;100259.44;5015578;28;64169;-58
2022/12/31 00:46:44;;;;;;;;;1.33;1.00;;;;;15.44;86.07;100278.06;4998809;28;45460;-58
2022/12/31 00:49:10;;;;;;;;;4.00;0.67;;;;;15.40;88.37;100281.13;5016123;28;45637;-58
2022/12/31 00:51:35;;;;;;;;;0.00;0.00;;;;;15.29;89.80;100264.06;5015459;28;45458;-58
2022/12/31 00:54:01;;;;;;;;;1.67;0.00;;;;;15.20;89.79;100270.16;5016211;28;45457;-58
2022/12/31 00:56:28;;;;;;;;;1.33;1.33;;;;;15.16;89.58;100268.72;5016445;28;45426;-58
2022/12/31 00:58:54;;;;;;;;;1.33;1.00;;;;;15.13;89.17;100279.69;5016232;28;45511;-58
2022/12/31 01:01:34;;;;;;;;;0.00;0.00;;;;;15.19;88.92;100262.25;5015708;28;46263;-56
2022/12/31 01:04:03;;;;;;;;;0.00;0.00;;;;;15.15;88.08;100269.69;5016072;28;45462;-58
2022/12/31 01:06:29;;;;;;;;;0.00;0.00;;;;;15.22;87.60;100270.03;5015777;28;45318;-57
2022/12/31 01:08:55;;;;;;;;;1.00;0.67;;;;;15.25;87.14;100273.34;5016028;28;45529;-57
2022/12/31 01:11:21;;;;;;;;;3.67;0.00;;;;;15.30;87.22;100281.84;5021158;28;45288;-57
2022/12/31 01:13:48;;;;;;;;;0.00;0.00;;;;;15.33;86.85;100295.00;5035303;28;45226;-55
2022/12/31 01:16:15;;;;;;;;;0.00;0.00;;;;;15.30;86.15;100286.34;5035871;28;45505;-56
2022/12/31 01:18:40;;;;;;;;;0.00;0.00;;;;;15.40;85.98;100284.66;5036200;28;45611;-57
2022/12/31 01:21:08;;;;;;;;;0.00;0.00;;;;;15.44;86.04;100304.00;5022927;28;45428;-56
2022/12/31 01:23:33;;;;;;;;;2.00;0.00;;;;;15.49;85.59;100299.97;5015747;28;45409;-57
2022/12/31 01:26:00;;;;;;;;;0.00;0.00;;;;;15.53;85.31;100295.22;5015999;28;45284;-56
2022/12/31 01:28:27;;;;;;;;;0.00;0.00;;;;;15.54;84.58;100292.41;5015781;28;45333;-58
2022/12/31 01:30:52;;;;;;;;;0.00;0.00;;;;;15.56;84.32;100287.78;5015455;28;45420;-56
2022/12/31 01:33:18;;;;;;;;;1.00;0.00;;;;;15.64;84.44;100300.59;5015862;28;45283;-58
2022/12/31 01:35:43;;;;;;;;;2.00;1.00;;;;;15.63;83.75;100296.22;5015693;28;45377;-59
2022/12/31 01:38:08;;;;;;;;;0.33;0.00;;;;;15.63;83.33;100298.91;4997938;28;45414;-57
2022/12/31 01:40:39;;;;;;;;;1.33;0.00;;;;;15.59;84.18;100317.03;5015300;28;45366;-57
2022/12/31 01:43:19;;;;;;;;;1.00;1.00;;;;;15.69;83.41;100324.34;5015228;28;45368;-57
2022/12/31 01:45:48;;;;;;;;;0.67;0.00;;;;;15.71;83.71;100317.88;5015532;28;45384;-58
2022/12/31 01:48:18;;;;;;;;;2.67;0.00;;;;;15.73;83.40;100307.88;5018814;28;45483;-58
2022/12/31 01:50:45;;;;;;;;;0.00;0.00;;;;;15.73;83.35;100302.50;5018689;28;45473;-58
2022/12/31 01:53:11;;;;;;;;;0.00;0.00;;;;;15.79;82.52;100319.94;5017568;28;45393;-56
2022/12/31 01:55:53;;;;;;;;;0.00;0.00;;;;;15.80;82.83;100338.59;5018887;28;45352;-57
2022/12/31 01:58:28;;;;;;;;;0.00;0.00;;;;;15.81;82.53;100334.91;5019328;28;45447;-58
2022/12/31 02:00:56;;;;;;;;;0.00;0.00;;;;;15.78;82.92;100327.13;5017979;28;45450;-59
2022/12/31 02:03:23;;;;;;;;;1.67;0.00;;;;;15.89;82.68;100339.66;5019006;28;45405;-57
2022/12/31 02:05:56;;;;;;;;;2.00;0.67;;;;;15.91;82.58;100343.91;5019100;28;45265;-57
2022/12/31 02:08:22;;;;;;;;;0.00;0.00;;;;;15.87;82.78;100329.03;5019253;28;45323;-57
2022/12/31 02:10:47;;;;;;;;;0.00;0.00;;;;;15.95;82.17;100327.56;5018088;28;45494;-57
2022/12/31 02:13:13;;;;;;;;;0.67;0.00;;;;;15.93;82.11;100325.88;5018514;28;47499;-57
2022/12/31 02:15:58;;;;;;;;;2.00;0.00;;;;;15.98;81.43;100330.00;4984373;28;45275;-57
2022/12/31 02:18:34;;;;;;;;;2.00;0.00;;;;;16.00;81.22;100328.88;5000459;28;45372;-57
2022/12/31 02:21:38;;;;;;;;;0.00;0.00;;;;;15.98;80.38;100330.00;5018159;28;47284;-58
2022/12/31 02:24:16;;;;;;;;;2.00;1.00;;;;;16.02;80.10;100328.78;5018353;28;45162;-57
2022/12/31 02:27:05;;;;;;;;;0.00;0.00;;;;;16.03;79.89;100327.78;5018399;28;45416;-58
2022/12/31 02:30:08;;;;;;;;;0.33;0.00;;;;;16.06;79.39;100332.91;5018485;28;45434;-59
2022/12/31 02:33:11;;;;;;;;;0.00;0.00;;;;;16.08;78.89;100330.94;5018279;28;45419;-58
2022/12/31 02:35:51;;;;;;;;;2.00;0.00;;;;;16.11;80.10;100341.41;5018181;28;45249;-58
2022/12/31 02:38:30;;;;;;;;;0.00;0.00;;;;;16.07;79.61;100339.97;5018048;28;45450;-60
2022/12/31 02:40:56;;;;;;;;;0.00;0.00;;;;;16.13;79.53;100350.16;5000769;28;45287;-58
2022/12/31 02:43:23;;;;;;;;;0.67;0.67;;;;;16.11;78.85;100347.63;5018251;28;46186;-58
2022/12/31 02:46:03;;;;;;;;;0.00;0.00;;;;;16.13;79.67;100353.72;5000119;28;45526;-56
2022/12/31 02:48:48;;;;;;;;;2.00;1.00;;;;;16.20;78.34;100354.06;5018036;28;45408;-56
2022/12/31 02:51:37;;;;;;;;;1.00;0.00;;;;;16.21;79.15;100358.44;5018151;28;45272;-56
2022/12/31 02:54:27;;;;;;;;;0.00;0.00;;;;;16.22;78.57;100354.78;5017730;28;45512;-58
2022/12/31 02:57:01;;;;;;;;;0.00;0.00;;;;;16.21;77.97;100363.81;4999704;28;45388;-55
2022/12/31 03:02:20;;;;;;;;;3.33;0.00;;;;;16.23;78.36;100362.69;5018049;28;45221;-58
2022/12/31 03:04:54;;;;;;;;;0.00;0.00;;;;;16.17;78.23;100363.22;5016587;28;45483;-57
2022/12/31 03:07:25;;;;;;;;;0.67;0.00;;;;;16.20;77.90;100362.97;5000501;28;45375;-56
2022/12/31 03:09:51;;;;;;;;;0.67;0.67;;;;;16.21;78.07;100374.53;5017577;28;45861;-56
2022/12/31 03:15:05;;;;;;;;;0.00;0.00;;;;;16.23;77.88;100356.47;5037218;28;45359;-57
2022/12/31 03:17:32;;;;;;;;;2.00;0.00;;;;;16.17;77.84;100368.59;5037295;28;45370;-57
2022/12/31 03:22:42;;;;;;;;;1.00;1.00;;;;;16.23;77.74;100377.94;5037703;28;45479;-57
2022/12/31 03:27:55;;;;;;;;;0.00;0.00;;;;;16.21;77.35;100372.72;5037469;28;45279;-58
2022/12/31 03:30:22;;;;;;;;;1.00;1.00;;;;;16.23;77.69;100388.69;5037336;28;45264;-57
2022/12/31 03:32:48;;;;;;;;;0.33;0.00;;;;;16.18;77.37;100372.97;5037530;28;45323;-59
2022/12/31 03:35:16;;;;;;;;;0.00;0.00;;;;;16.17;77.45;100375.78;5019013;28;47922;-58
2022/12/31 03:37:42;;;;;;;;;1.00;1.00;;;;;16.22;77.81;100387.84;5037079;28;45378;-58
2022/12/31 03:40:11;;;;;;;;;2.67;0.00;;;;;16.18;77.33;100390.91;5037053;28;45494;-56
2022/12/31 03:42:36;;;;;;;;;0.33;0.33;;;;;16.15;77.34;100396.53;5037319;28;45539;-58
2022/12/31 03:45:02;;;;;;;;;1.00;1.00;;;;;16.14;77.13;100390.28;5036829;28;45377;-58
2022/12/31 03:47:28;;;;;;;;;1.00;1.00;;;;;16.15;77.44;100412.63;5036784;28;45719;-57
2022/12/31 03:49:53;;;;;;;;;2.33;0.67;;;;;16.15;77.69;100402.75;5037310;28;45399;-59
2022/12/31 03:52:19;;;;;;;;;0.00;0.00;;;;;16.11;76.18;100412.00;5019158;28;45279;-58
2022/12/31 03:54:44;;;;;;;;;0.00;0.00;;;;;16.14;77.31;100397.47;5036789;28;46002;-58
2022/12/31 03:57:10;;;;;;;;;1.33;0.33;;;;;16.11;76.98;100400.44;5019016;28;45442;-57
2022/12/31 03:59:35;;;;;;;;;2.00;0.00;;;;;16.04;77.42;100378.63;5036667;28;45411;-58
2022/12/31 04:02:00;;;;;;;;;0.00;0.00;;;;;16.06;76.06;100382.03;5019041;28;45654;-57
2022/12/31 04:04:26;;;;;;;;;0.00;0.00;;;;;16.11;76.12;100405.78;5036251;28;45437;-62
2022/12/31 04:06:51;;;;;;;;;1.00;1.00;;;;;16.11;76.06;100400.44;5036709;28;45488;-57
2022/12/31 04:09:16;;;;;;;;;0.67;0.67;;;;;16.03;76.22;100389.50;5035763;28;46021;-57
2022/12/31 04:11:42;;;;;;;;;1.00;0.00;;;;;16.09;76.75;100392.50;5028423;28;45395;-56
2022/12/31 04:14:07;;;;;;;;;0.67;0.67;;;;;16.08;76.26;100389.94;5016627;28;46052;-57
2022/12/31 04:16:33;;;;;;;;;2.33;1.00;;;;;16.06;76.83;100394.59;5016627;28;45479;-58
2022/12/31 04:18:58;;;;;;;;;1.00;1.00;;;;;16.08;76.19;100393.50;5017227;28;45472;-56
2022/12/31 04:21:24;;;;;;;;;0.00;0.00;;;;;16.06;76.06;100382.03;5016742;28;45329;-59
2022/12/31 04:23:49;;;;;;;;;0.00;0.00;;;;;16.04;76.55;100388.50;5016235;28;46086;-59
2022/12/31 04:26:15;;;;;;;;;1.00;1.00;;;;;15.92;76.31;100369.75;5016439;28;45233;-58
2022/12/31 04:28:40;;;;;;;;;1.00;1.00;;;;;15.96;76.17;100381.06;5016499;28;45374;-59
2022/12/31 04:31:06;;;;;;;;;2.00;0.67;;;;;15.99;76.13;100386.19;5016603;28;45288;-58
2022/12/31 04:33:31;;;;;;;;;3.00;1.00;;;;;16.00;76.94;100392.41;5016275;28;45281;-58
2022/12/31 04:36:04;;;;;;;;;1.67;1.00;;;;;16.00;77.14;100384.34;5016496;28;45289;-56
2022/12/31 04:38:29;;;;;;;;;2.67;1.00;;;;;15.96;75.82;100396.31;5016655;28;45348;-56
2022/12/31 04:43:39;;;;;;;;;2.00;0.00;;;;;15.99;75.96;100413.00;5016107;28;45514;-58
2022/12/31 04:46:05;;;;;;;;;1.00;1.00;;;;;15.99;75.56;100402.28;4998052;28;45854;-59
2022/12/31 04:48:34;;;;;;;;;3.33;1.00;;;;;16.01;75.67;100400.31;5016312;28;45295;-57
2022/12/31 04:51:00;;;;;;;;;1.00;1.00;;;;;16.02;75.85;100398.53;5016684;28;45324;-58
2022/12/31 04:53:25;;;;;;;;;0.00;0.00;;;;;16.03;75.32;100394.84;5015850;28;45378;-58
2022/12/31 04:55:51;;;;;;;;;1.00;1.00;;;;;16.04;75.98;100389.38;5015878;28;45275;-58
2022/12/31 04:58:17;;;;;;;;;3.00;2.00;;;;;16.02;76.01;100395.84;5016013;28;45446;-57
2022/12/31 05:00:44;;;;;;;;;1.00;1.00;;;;;16.03;75.70;100408.28;5016161;28;45563;-58
2022/12/31 05:03:10;;;;;;;;;3.33;1.00;;;;;16.03;76.19;100390.34;5015618;28;45221;-58
2022/12/31 05:05:41;;;;;;;;;1.00;1.00;;;;;16.01;75.76;100407.50;5015827;28;45335;-57
2022/12/31 05:08:07;;;;;;;;;2.00;1.00;;;;;16.03;75.85;100414.47;5015907;28;45340;-59
2022/12/31 05:10:32;;;;;;;;;1.67;1.67;;;;;16.05;76.05;100409.00;5016400;28;45883;-58
2022/12/31 05:12:58;;;;;;;;;0.00;0.00;;;;;16.04;76.06;100415.34;4998268;28;45416;-56
2022/12/31 05:15:23;;;;;;;;;2.00;1.00;;;;;16.04;75.34;100420.69;4997668;28;45508;-56
2022/12/31 05:17:49;;;;;;;;;1.00;1.00;;;;;16.02;76.05;100419.97;5015865;28;45315;-56
2022/12/31 05:20:14;;;;;;;;;2.67;1.00;;;;;15.99;75.67;100415.69;5015476;28;45373;-57
2022/12/31 05:22:40;;;;;;;;;1.00;1.00;;;;;15.95;75.60;100411.56;5019207;28;45333;-57
2022/12/31 05:25:05;;;;;;;;;1.67;1.67;;;;;15.98;75.95;100426.53;5019206;28;45286;-56
2022/12/31 05:27:31;;;;;;;;;4.33;1.00;;;;;15.96;75.96;100417.78;5019282;28;45242;-57
2022/12/31 05:29:56;;;;;;;;;1.00;1.00;;;;;15.98;75.46;100426.53;5019717;28;45595;-63
2022/12/31 05:32:22;;;;;;;;;1.00;0.00;;;;;15.98;74.88;100438.13;5019245;28;45381;-58
2022/12/31 05:34:47;;;;;;;;;1.00;1.00;;;;;15.98;75.64;100435.44;5019287;28;45488;-59
2022/12/31 05:37:12;;;;;;;;;1.00;1.00;;;;;15.98;75.54;100439.97;5019225;28;45400;-63
2022/12/31 05:39:38;;;;;;;;;1.33;0.00;;;;;15.97;75.33;100440.94;5019458;28;45289;-56
2022/12/31 05:42:03;;;;;;;;;1.00;1.00;;;;;15.97;75.21;100435.56;5019321;28;45327;-58
2022/12/31 05:44:28;;;;;;;;;0.67;0.00;;;;;15.97;75.54;100440.94;5019275;28;45459;-58
2022/12/31 05:46:54;;;;;;;;;2.00;0.00;;;;;15.91;75.67;100426.22;5001116;28;45345;-57
2022/12/31 05:49:19;;;;;;;;;1.33;0.00;;;;;16.01;75.12;100447.75;5019612;28;45710;-58
2022/12/31 05:51:45;;;;;;;;;2.00;2.00;;;;;16.02;75.55;100446.81;5019153;28;46141;-55
2022/12/31 05:54:10;;;;;;;;;1.00;1.00;;;;;15.99;74.69;100442.50;5019049;28;45357;-58
2022/12/31 05:56:36;;;;;;;;;1.67;1.00;;;;;15.97;74.71;100433.75;5019096;28;45384;-57
2022/12/31 05:59:01;;;;;;;;;2.00;2.00;;;;;15.96;75.16;100444.59;5019411;28;45490;-57
2022/12/31 06:01:27;;;;;;;;;2.00;2.00;;;;;15.94;74.97;100447.41;5000760;28;46669;-56
2022/12/31 06:03:52;;;;;;;;;1.67;1.33;;;;;15.96;75.00;100452.66;5018765;28;46915;-56
2022/12/31 06:06:18;;;;;;;;;1.00;1.00;;;;;15.97;74.89;100457.03;5019284;28;45299;-57
2022/12/31 06:08:43;;;;;;;;;2.00;1.00;;;;;15.92;75.21;100439.50;5019138;28;45420;-58
2022/12/31 06:11:08;;;;;;;;;1.67;1.67;;;;;15.90;74.53;100446.81;5018424;28;45333;-57
2022/12/31 06:13:34;;;;;;;;;3.00;1.00;;;;;15.84;74.71;100449.97;5001179;28;45358;-56
2022/12/31 06:16:07;;;;;;;;;3.00;2.00;;;;;15.88;74.87;100464.81;5018474;28;45436;-57
2022/12/31 06:18:33;;;;;;;;;3.00;1.00;;;;;15.90;74.62;100456.69;5019188;28;45393;-57
2022/12/31 06:20:59;;;;;;;;;1.00;1.00;;;;;15.91;75.09;100458.38;5018071;28;46325;-56
2022/12/31 06:23:24;;;;;;;;;1.00;1.00;;;;;15.84;74.39;100452.66;5000559;28;45341;-57
2022/12/31 06:25:50;;;;;;;;;2.00;2.00;;;;;15.83;74.81;100472.41;5018483;28;45310;-57
2022/12/31 06:28:15;;;;;;;;;0.00;0.00;;;;;15.85;74.80;100466.91;5018797;28;45651;-57
2022/12/31 06:30:41;;;;;;;;;2.67;1.00;;;;;15.88;74.98;100462.16;5000090;28;46234;-57
2022/12/31 06:33:06;;;;;;;;;3.00;2.00;;;;;15.88;74.57;100475.56;5017761;28;45244;-57
2022/12/31 06:35:31;;;;;;;;;3.00;1.33;;;;;15.83;75.10;100488.50;5018420;28;45301;-57
2022/12/31 06:37:57;;;;;;;;;4.67;2.00;;;;;15.90;74.89;100479.00;5018557;28;46101;-58
2022/12/31 06:40:22;;;;;;;;;3.00;1.00;;;;;15.92;74.54;100482.41;5017400;28;45230;-56
2022/12/31 06:42:47;;;;;;;;;2.00;2.00;;;;;15.92;74.64;100477.03;4999666;28;45802;-59
2022/12/31 06:45:13;;;;;;;;;1.33;1.00;;;;;15.93;73.93;100486.78;5018153;28;45721;-56
2022/12/31 06:47:38;;;;;;;;;1.00;1.00;;;;;15.89;74.18;100481.81;5018189;28;45167;-57
2022/12/31 06:50:04;;;;;;;;;1.00;1.00;;;;;15.81;75.06;100469.00;5018111;28;46358;-57
2022/12/31 06:52:29;;;;;;;;;0.33;0.00;;;;;15.95;74.24;100512.63;5016985;28;45474;-56
2022/12/31 06:54:55;;;;;;;;;2.33;1.33;;;;;15.93;73.89;100484.09;4999992;28;45718;-56
2022/12/31 06:57:22;;;;;;;;;2.67;2.67;;;;;15.93;74.13;100505.56;5018082;28;45545;-56
2022/12/31 06:59:48;;;;;;;;;2.00;2.00;;;;;15.94;74.09;100509.09;5017800;28;46048;-58
2022/12/31 07:02:39;;;;;;;;;3.00;2.00;;;;;15.90;74.11;100510.31;5017575;28;45392;-58
2022/12/31 07:05:11;;;;;;;;;2.00;2.00;;;;;15.95;73.89;100510.81;5018359;28;45438;-58
2022/12/31 07:07:46;;;;;;;;;1.33;1.33;;;;;15.96;74.07;100509.81;5000369;28;45243;-59
2022/12/31 07:10:40;;;;;;;;;3.00;3.00;;;;;15.95;74.10;100510.81;5017520;28;46612;-58
2022/12/31 07:13:23;;;;;;;;;3.00;2.00;;;;;15.96;74.10;100500.91;5028360;28;45567;-56
2022/12/31 07:16:12;;;;;;;;;2.00;0.33;;;;;15.98;73.49;100507.00;5034485;28;46281;-58
2022/12/31 07:18:59;;;;;;;;;1.67;1.67;;;;;15.83;74.17;100483.13;5019328;28;45678;-58
2022/12/31 07:21:33;;;;;;;;;3.00;1.67;;;;;15.90;74.21;100504.97;5036478;28;46385;-58
2022/12/31 07:23:59;;;;;;;;;4.67;1.33;;;;;15.95;73.87;100508.13;5037210;28;45435;-58
2022/12/31 07:26:42;;;;;;;;;1.33;0.00;;;;;15.96;73.53;100511.66;5037284;28;45478;-58
2022/12/31 07:29:23;;;;;;;;;0.33;0.33;;;;;15.97;74.04;100513.34;5037972;28;45225;-58
2022/12/31 07:32:01;;;;;;;;;1.33;1.00;;;;;16.00;74.23;100526.50;5036602;28;46210;-58
2022/12/31 07:34:29;;;;;;;;;1.00;1.00;;;;;16.00;73.68;100529.19;5036947;28;45228;-57
2022/12/31 07:37:18;;;;;;;;;2.00;2.00;;;;;15.96;72.96;100530.44;5036910;28;45365;-58
2022/12/31 07:40:08;;;;;;;;;3.00;2.00;;;;;15.99;73.86;100530.19;5037271;28;45434;-57
2022/12/31 07:42:52;;;;;;;;;3.00;2.00;;;;;16.00;73.58;100531.88;5037000;28;45327;-57
2022/12/31 07:45:25;;;;;;;;;2.00;2.00;;;;;16.04;73.48;100533.38;5037002;28;45324;-57
2022/12/31 07:47:51;;;;;;;;;2.00;2.00;;;;;16.02;72.58;100529.97;5037102;28;45371;-61
2022/12/31 07:50:17;;;;;;;;;3.00;3.00;;;;;15.97;72.19;100527.63;5036805;28;45574;-59
2022/12/31 07:52:44;;;;;;;;;2.00;2.00;;;;;16.01;72.85;100545.16;5036764;28;46088;-57
2022/12/31 07:55:10;;;;;;;;;3.00;2.00;;;;;16.01;72.98;100555.03;5037016;28;45340;-57
2022/12/31 07:57:53;;;;;;;;;2.00;2.00;;;;;16.00;72.67;100581.00;5036482;28;45408;-60
2022/12/31 08:00:18;;;;;;;;;1.00;1.00;;;;;16.02;72.70;100578.25;5036524;28;45462;-57
2022/12/31 08:03:17;;;;;;;;;2.00;2.00;;;;;16.04;73.31;100566.41;5018629;28;45413;-58
2022/12/31 08:06:08;;;;;;;;;3.00;3.00;;;;;16.06;72.15;100572.50;5018190;28;45365;-56
2022/12/31 08:09:08;;;;;;;;;2.00;2.00;;;;;16.06;72.86;100580.56;5036732;28;45241;-59
2022/12/31 08:11:55;;;;;;;;;4.00;2.67;;;;;16.08;72.34;100562.50;5003306;28;45344;-58
2022/12/31 08:14:20;;;;;;;;;3.00;3.00;;;;;16.06;71.61;100569.81;4998262;28;47492;-62
2022/12/31 08:16:46;;;;;;;;;3.00;3.00;;;;;16.03;71.07;100569.22;5016257;28;45409;-58
2022/12/31 08:19:32;;;;;;;;;3.67;2.33;;;;;16.06;72.09;100571.66;5016548;28;45396;-55
2022/12/31 08:22:19;;;;;;;;;2.00;2.00;;;;;16.05;71.72;100578.84;5016277;28;45513;-58
2022/12/31 08:24:53;;;;;;;;;2.00;2.00;;;;;16.08;71.11;100593.84;4998215;28;46636;-59
2022/12/31 08:27:31;;;;;;;;;3.00;2.00;;;;;16.07;71.74;100598.34;5016397;28;45202;-58
2022/12/31 08:30:12;;;;;;;;;5.00;3.00;;;;;16.08;72.26;100599.19;4998540;28;45455;-58
2022/12/31 08:33:05;;;;;;;;;2.67;2.33;;;;;16.01;71.84;100601.50;5016483;28;45658;-57
2022/12/31 08:35:57;;;;;;;;;2.67;2.00;;;;;16.05;71.25;100599.44;5016081;28;45340;-58
2022/12/31 08:38:34;;;;;;;;;3.00;3.00;;;;;16.03;71.36;100601.41;5015573;28;45414;-59
2022/12/31 08:41:14;;;;;;;;;3.67;3.33;;;;;16.03;71.56;100599.56;5016035;28;45484;-59
2022/12/31 08:43:48;;;;;;;;;3.67;3.00;;;;;16.00;71.56;100597.13;4983087;28;45462;-57
2022/12/31 08:46:30;;;;;;;;;5.67;4.00;;;;;16.00;71.18;100613.22;5015324;28;46325;-62
2022/12/31 08:48:55;;;;;;;;;3.00;3.00;;;;;16.00;70.83;100607.00;5016136;28;45237;-58
2022/12/31 08:51:23;;;;;;;;;4.67;3.00;;;;;15.98;70.58;100622.34;5016066;28;45269;-60
2022/12/31 08:53:49;;;;;;;;;4.00;4.00;;;;;15.98;71.80;100614.31;5016049;28;45377;-59
2022/12/31 08:56:30;;;;;;;;;4.67;4.00;;;;;15.95;71.23;100611.88;4986206;28;48168;-59
2022/12/31 08:59:20;;;;;;;;;4.00;4.00;;;;;15.96;71.57;100619.78;5021080;28;45439;-61
2022/12/31 09:02:03;;;;;;;;;2.33;2.33;;;;;15.95;71.43;100623.44;5022411;28;45409;-59
2022/12/31 09:05:01;;;;;;;;;4.00;2.00;;;;;15.95;70.54;100622.59;5022760;28;45312;-62
2022/12/31 09:07:36;;;;;;;;;3.00;3.00;;;;;15.95;71.47;100626.13;5022530;28;45346;-63
2022/12/31 09:10:24;;;;;;;;;3.00;3.00;;;;;15.96;71.23;100638.56;5022189;28;45332;-61
2022/12/31 09:13:34;;;;;;;;;3.00;3.00;;;;;15.91;71.76;100630.03;5039801;28;45233;-63
2022/12/31 09:16:25;;;;;;;;;3.67;3.00;;;;;15.93;70.23;100620.91;4961489;28;45724;-67
2022/12/31 09:18:51;;;;;;;;;5.00;4.00;;;;;15.93;70.11;100637.00;4960410;28;45338;-65
2022/12/31 09:21:17;;;;;;;;;5.00;3.00;;;;;15.97;70.04;100620.66;5012287;28;45259;-63
2022/12/31 09:23:43;;;;;;;;;4.00;3.00;;;;;16.05;70.51;100637.00;5030901;28;45367;-62
2022/12/31 09:26:34;;;;;;;;;3.00;2.00;;;;;16.02;70.12;100642.63;5022332;28;45599;-63
2022/12/31 09:29:24;;;;;;;;;4.00;4.00;;;;;16.01;69.05;100633.69;4993158;28;46291;-64
2022/12/31 09:32:07;;;;;;;;;4.67;3.00;;;;;16.06;69.55;100646.75;5020277;28;45572;-63
2022/12/31 09:34:38;;;;;;;;;4.50;3.50;;;;;16.07;69.91;100641.28;5022209;28;45233;-62
2022/12/31 09:37:19;;;;;;;;;6.33;3.33;;;;;16.11;70.03;100631.16;5022434;28;45454;-62
2022/12/31 09:39:47;;;;;;;;;4.67;3.00;;;;;16.09;68.50;100628.59;5004591;28;48728;-60
2022/12/31 09:42:46;;;;;;;;;2.33;2.33;;;;;16.08;68.95;100626.03;5004081;28;45472;-59
2022/12/31 09:45:31;;;;;;;;;5.00;3.00;;;;;16.13;69.43;100635.41;5022141;28;45244;-59
2022/12/31 09:48:15;;;;;;;;;3.67;2.00;;;;;16.08;67.88;100655.53;5021975;28;45452;-59
2022/12/31 09:50:55;;;;;;;;;3.00;3.00;;;;;16.09;68.80;100639.31;4987432;28;45322;-60
2022/12/31 09:53:39;;;;;;;;;4.00;4.00;;;;;16.12;68.80;100638.22;5003660;28;45397;-61
2022/12/31 09:56:16;;;;;;;;;3.00;3.00;;;;;16.17;69.01;100641.41;5021793;28;45411;-61
2022/12/31 09:59:06;;;;;;;;;3.33;3.33;;;;;16.13;67.42;100624.69;5021753;28;45465;-60
2022/12/31 10:01:41;;;;;;;;;5.00;4.00;;;;;16.12;67.88;100632.84;5021328;28;45411;-60
2022/12/31 10:04:39;;;;;;;;;5.00;4.00;;;;;16.09;67.56;100631.28;5021603;28;45323;-61
2022/12/31 10:07:31;;;;;;;;;4.00;2.00;;;;;16.15;68.45;100627.28;4993093;28;45442;-63
2022/12/31 10:10:06;;;;;;;;;3.00;3.00;;;;;16.13;68.04;100634.56;5018900;28;45313;-61
2022/12/31 10:12:56;;;;;;;;;3.00;3.00;;;;;16.14;67.11;100630.91;5017773;28;45653;-63
2022/12/31 10:15:53;;;;;;;;;3.00;3.00;;;;;16.14;67.54;100636.25;5018281;28;45464;-59
2022/12/31 10:18:22;;;;;;;;;5.00;3.67;;;;;16.14;66.69;100614.81;5018799;28;45539;-64
2022/12/31 10:20:58;;;;;;;;;4.00;3.67;;;;;16.16;66.50;100632.50;5018786;28;45317;-62
2022/12/31 10:23:43;;;;;;;;;4.00;4.00;;;;;16.22;67.12;100625.78;5018031;28;45235;-61
2022/12/31 10:26:39;;;;;;;;;2.00;2.00;;;;;16.27;67.33;100631.63;4989699;28;45439;-62
2022/12/31 10:29:22;;;;;;;;;3.00;3.00;;;;;16.28;66.09;100633.38;5000580;28;45369;-60
2022/12/31 10:32:15;;;;;;;;;3.00;3.00;;;;;16.30;65.93;100618.00;5018705;28;45248;-59
2022/12/31 10:34:53;;;;;;;;;5.33;4.00;;;;;16.36;65.58;100625.56;5018302;28;45255;-63
2022/12/31 10:37:42;;;;;;;;;2.00;2.00;;;;;16.39;66.19;100630.66;5018346;28;45557;-64
2022/12/31 10:40:39;;;;;;;;;3.67;3.67;;;;;16.44;64.10;100636.53;5018217;28;45368;-59
2022/12/31 10:43:07;;;;;;;;;3.33;2.00;;;;;16.45;64.31;100621.28;4946910;28;45440;-59
2022/12/31 10:45:46;;;;;;;;;3.00;3.00;;;;;16.47;64.63;100620.19;5017712;28;45362;-59
2022/12/31 10:48:23;;;;;;;;;3.00;3.00;;;;;16.56;64.19;100615.91;4999973;28;45307;-59
2022/12/31 10:50:54;;;;;;;;;2.00;2.00;;;;;16.59;64.52;100612.97;5018228;28;45454;-59
2022/12/31 10:53:51;;;;;;;;;4.67;3.33;;;;;16.60;64.75;100600.41;5018668;28;45570;-59
2022/12/31 10:56:53;;;;;;;;;4.00;3.00;;;;;16.63;63.93;100594.78;5017590;28;45409;-59
2022/12/31 10:59:53;;;;;;;;;3.00;3.00;;;;;16.60;62.86;100573.56;5017542;28;45242;-60
2022/12/31 11:03:07;;;;;;;;;3.00;3.00;;;;;16.74;63.78;100595.66;4985173;28;45420;-59
2022/12/31 11:06:17;;;;;;;;;5.67;3.67;;;;;16.92;63.21;100590.59;5017957;28;45941;-59
2022/12/31 11:08:57;;;;;;;;;1.67;1.67;;;;;17.03;62.75;100582.50;4992087;28;45494;-59
2022/12/31 11:11:59;;;;;;;;;4.00;3.00;;;;;17.13;61.36;100579.06;5023296;28;45979;-58
2022/12/31 11:14:34;;;;;;;;;3.00;3.00;;;;;17.18;62.20;100590.25;5037777;28;45506;-60
2022/12/31 11:17:15;;;;;;;;;6.33;3.33;;;;;17.16;62.63;100593.06;5037785;28;45695;-59
2022/12/31 11:19:55;;;;;;;;;24.67;20.00;;;;;17.18;62.57;100584.88;5036911;28;46210;-59
2022/12/31 11:22:51;;;;;;;;;3.00;3.00;;;;;17.19;60.55;100579.41;5037068;28;45440;-58
2022/12/31 11:25:22;;;;;;;;;7.33;4.00;;;;;17.13;60.38;100582.59;4998071;28;45430;-60
2022/12/31 11:28:06;;;;;;;;;2.00;2.00;;;;;17.10;61.05;100564.91;4997830;28;45512;-59
2022/12/31 11:30:38;;;;;;;;;4.00;2.67;;;;;17.14;61.35;100581.59;4997398;28;45298;-61
2022/12/31 11:33:19;;;;;;;;;3.33;3.33;;;;;17.14;60.32;100578.06;4997219;28;45422;-59
2022/12/31 11:36:23;;;;;;;;;3.67;2.00;;;;;17.19;60.30;100571.34;4997604;28;45170;-59
2022/12/31 11:39:15;;;;;;;;;5.00;3.00;;;;;17.21;61.17;100580.13;4996164;28;45246;-59
2022/12/31 11:42:01;;;;;;;;;7.00;3.67;;;;;17.16;60.98;100565.34;4997252;28;46423;-57
2022/12/31 11:44:46;;;;;;;;;1.00;1.00;;;;;17.24;60.06;100576.31;4996903;28;45395;-59
2022/12/31 11:47:39;;;;;;;;;4.00;4.00;;;;;17.33;61.06;100571.03;4979467;28;45271;-58
2022/12/31 11:50:28;;;;;;;;;5.67;4.33;;;;;17.34;59.69;100579.94;4997222;28;45548;-59
2022/12/31 11:53:00;;;;;;;;;3.00;3.00;;;;;17.24;59.14;100579.00;4996887;28;45505;-59
2022/12/31 11:55:53;;;;;;;;;4.00;3.00;;;;;17.17;59.93;100561.69;4996908;28;45416;-59
2022/12/31 11:58:19;;;;;;;;;2.00;1.00;;;;;17.26;61.31;100560.91;4996307;28;45363;-61
2022/12/31 12:00:56;;;;;;;;;3.00;3.00;;;;;17.41;60.63;100564.97;4997315;28;45485;-59
2022/12/31 12:03:23;;;;;;;;;2.00;2.00;;;;;17.32;59.72;100549.66;4996985;28;45275;-58
2022/12/31 12:05:49;;;;;;;;;4.00;4.00;;;;;17.26;58.41;100544.78;4996699;28;45441;-59
2022/12/31 12:08:15;;;;;;;;;2.00;1.67;;;;;17.36;59.11;100545.72;4979216;28;45353;-58